sensor_id;sensor_type;location;lat;lon;timestamp;temperature;humidity
15072;DHT22;7635;56.696;13.002;2023-07-20T01:39:53;12.60;99.90
15072;DHT22;7635;56.696;13.002;2023-07-20T01:50:32;12.50;99.90
15072;DHT22;7635;56.696;13.002;2023-07-20T01:53:26;12.50;99.90
15072;DHT22;7635;56.696;13.002;2023-07-20T02:45:07;11.90;99.90
15072;DHT22;7635;56.696;13.002;2023-07-20T02:52:09;11.80;99.90
15072;DHT22;7635;56.696;13.002;2023-07-20T03:02:21;11.80;99.90
15072;DHT22;7635;56.696;13.002;2023-07-20T03:25:53;12.20;99.90
15072;DHT22;7635;56.696;13.002;2023-07-20T03:34:30;12.40;99.90
15072;DHT22;7635;56.696;13.002;2023-07-20T03:35:54;12.40;99.90
15072;DHT22;7635;56.696;13.002;2023-07-20T03:45:48;12.50;99.90
15072;DHT22;7635;56.696;13.002;2023-07-20T03:55:30;12.60;99.90
15072;DHT22;7635;56.696;13.002;2023-07-20T04:42:08;13.60;99.90
15072;DHT22;7635;56.696;13.002;2023-07-20T04:48:38;13.60;99.90
15072;DHT22;7635;56.696;13.002;2023-07-20T04:55:29;13.60;99.90
15072;DHT22;7635;56.696;13.002;2023-07-20T04:58:15;13.70;99.90
15072;DHT22;7635;56.696;13.002;2023-07-20T05:21:37;13.80;99.90
15072;DHT22;7635;56.696;13.002;2023-07-20T05:24:29;13.90;99.90
15072;DHT22;7635;56.696;13.002;2023-07-20T05:34:12;13.90;99.90
15072;DHT22;7635;56.696;13.002;2023-07-20T05:37:31;13.80;99.90
15072;DHT22;7635;56.696;13.002;2023-07-20T05:40:46;13.70;99.90
15072;DHT22;7635;56.696;13.002;2023-07-20T05:57:39;13.90;99.90
15072;DHT22;7635;56.696;13.002;2023-07-20T06:03:16;14.20;99.90
15072;DHT22;7635;56.696;13.002;2023-07-20T06:17:17;15.60;99.90
15072;DHT22;7635;56.696;13.002;2023-07-20T06:40:52;15.40;99.90
15072;DHT22;7635;56.696;13.002;2023-07-20T06:47:40;15.20;99.90
15072;DHT22;7635;56.696;13.002;2023-07-20T07:04:35;15.90;99.90
15072;DHT22;7635;56.696;13.002;2023-07-20T07:07:36;15.80;99.90
15072;DHT22;7635;56.696;13.002;2023-07-20T07:12:03;15.80;99.90
15072;DHT22;7635;56.696;13.002;2023-07-20T07:14:06;15.90;99.90
15072;DHT22;7635;56.696;13.002;2023-07-20T07:27:38;16.10;99.90
15072;DHT22;7635;56.696;13.002;2023-07-20T07:31:49;16.10;99.90
15072;DHT22;7635;56.696;13.002;2023-07-20T07:47:12;16.60;99.90
15072;DHT22;7635;56.696;13.002;2023-07-20T07:51:20;16.60;99.90
15072;DHT22;7635;56.696;13.002;2023-07-20T07:54:04;16.60;99.90
15072;DHT22;7635;56.696;13.002;2023-07-20T08:04:04;16.30;99.90
15072;DHT22;7635;56.696;13.002;2023-07-20T08:07:30;16.30;99.90
15072;DHT22;7635;56.696;13.002;2023-07-20T08:45:39;19.20;99.90
15072;DHT22;7635;56.696;13.002;2023-07-20T08:59:13;19.60;99.90
15072;DHT22;7635;56.696;13.002;2023-07-20T09:05:22;19.70;99.90
15072;DHT22;7635;56.696;13.002;2023-07-20T09:07:50;19.50;99.90
15072;DHT22;7635;56.696;13.002;2023-07-20T09:10:17;19.30;99.90
15072;DHT22;7635;56.696;13.002;2023-07-20T09:12:44;19.30;99.90
15072;DHT22;7635;56.696;13.002;2023-07-20T09:15:11;19.30;99.90
15072;DHT22;7635;56.696;13.002;2023-07-20T09:17:38;19.30;99.90
15072;DHT22;7635;56.696;13.002;2023-07-20T09:20:07;19.30;99.90
15072;DHT22;7635;56.696;13.002;2023-07-20T09:22:38;19.30;99.90
15072;DHT22;7635;56.696;13.002;2023-07-20T09:25:06;18.90;99.90
15072;DHT22;7635;56.696;13.002;2023-07-20T09:27:35;18.90;99.90
15072;DHT22;7635;56.696;13.002;2023-07-20T09:30:04;18.80;99.90
15072;DHT22;7635;56.696;13.002;2023-07-20T09:32:38;18.80;99.90
15072;DHT22;7635;56.696;13.002;2023-07-20T09:35:05;18.70;99.90
15072;DHT22;7635;56.696;13.002;2023-07-20T09:37:33;18.50;99.90
15072;DHT22;7635;56.696;13.002;2023-07-20T09:40:01;18.30;99.90
15072;DHT22;7635;56.696;13.002;2023-07-20T09:42:28;18.20;99.90
15072;DHT22;7635;56.696;13.002;2023-07-20T09:44:55;18.10;99.90
15072;DHT22;7635;56.696;13.002;2023-07-20T09:47:23;18.00;99.90
15072;DHT22;7635;56.696;13.002;2023-07-20T09:49:49;18.00;99.90
15072;DHT22;7635;56.696;13.002;2023-07-20T09:52:21;18.30;99.90
15072;DHT22;7635;56.696;13.002;2023-07-20T09:54:48;18.50;99.90
15072;DHT22;7635;56.696;13.002;2023-07-20T09:57:17;18.70;99.90
15072;DHT22;7635;56.696;13.002;2023-07-20T09:59:44;18.70;99.90
15072;DHT22;7635;56.696;13.002;2023-07-20T10:02:16;18.70;99.90
15072;DHT22;7635;56.696;13.002;2023-07-20T10:04:46;18.70;99.90
15072;DHT22;7635;56.696;13.002;2023-07-20T10:07:14;19.00;99.90
15072;DHT22;7635;56.696;13.002;2023-07-20T10:09:41;19.10;99.90
15072;DHT22;7635;56.696;13.002;2023-07-20T10:12:10;19.10;99.90
15072;DHT22;7635;56.696;13.002;2023-07-20T10:14:41;19.00;99.90
15072;DHT22;7635;56.696;13.002;2023-07-20T10:17:11;18.80;99.90
15072;DHT22;7635;56.696;13.002;2023-07-20T10:19:43;18.50;99.90
15072;DHT22;7635;56.696;13.002;2023-07-20T10:22:13;18.30;99.90
15072;DHT22;7635;56.696;13.002;2023-07-20T10:24:45;18.10;99.90
15072;DHT22;7635;56.696;13.002;2023-07-20T10:27:12;18.00;99.90
15072;DHT22;7635;56.696;13.002;2023-07-20T10:29:41;17.80;99.90
15072;DHT22;7635;56.696;13.002;2023-07-20T10:32:09;17.70;99.90
15072;DHT22;7635;56.696;13.002;2023-07-20T10:34:36;17.60;99.90
15072;DHT22;7635;56.696;13.002;2023-07-20T10:37:03;17.50;99.90
15072;DHT22;7635;56.696;13.002;2023-07-20T10:39:31;17.50;99.90
15072;DHT22;7635;56.696;13.002;2023-07-20T10:42:02;17.50;99.90
15072;DHT22;7635;56.696;13.002;2023-07-20T10:44:30;17.50;99.90
15072;DHT22;7635;56.696;13.002;2023-07-20T10:47:02;17.50;99.90
15072;DHT22;7635;56.696;13.002;2023-07-20T10:49:33;17.40;99.90
15072;DHT22;7635;56.696;13.002;2023-07-20T10:52:04;17.20;99.90
15072;DHT22;7635;56.696;13.002;2023-07-20T10:54:35;17.10;99.90
15072;DHT22;7635;56.696;13.002;2023-07-20T10:57:23;17.00;99.90
15072;DHT22;7635;56.696;13.002;2023-07-20T10:59:50;17.10;99.90
15072;DHT22;7635;56.696;13.002;2023-07-20T11:02:19;17.30;99.90
15072;DHT22;7635;56.696;13.002;2023-07-20T11:04:47;17.60;99.90
15072;DHT22;7635;56.696;13.002;2023-07-20T11:07:20;17.80;99.90
15072;DHT22;7635;56.696;13.002;2023-07-20T11:10:12;18.00;99.90
15072;DHT22;7635;56.696;13.002;2023-07-20T11:12:39;18.10;99.90
15072;DHT22;7635;56.696;13.002;2023-07-20T11:15:06;18.10;99.90
15072;DHT22;7635;56.696;13.002;2023-07-20T11:17:35;18.20;99.90
15072;DHT22;7635;56.696;13.002;2023-07-20T11:20:04;18.30;99.90
15072;DHT22;7635;56.696;13.002;2023-07-20T11:22:31;18.30;99.90
15072;DHT22;7635;56.696;13.002;2023-07-20T11:24:58;18.10;99.90
15072;DHT22;7635;56.696;13.002;2023-07-20T11:27:25;18.00;99.90
15072;DHT22;7635;56.696;13.002;2023-07-20T11:29:52;17.90;99.90
15072;DHT22;7635;56.696;13.002;2023-07-20T11:32:20;17.80;99.90
15072;DHT22;7635;56.696;13.002;2023-07-20T11:34:49;17.90;99.90
15072;DHT22;7635;56.696;13.002;2023-07-20T11:37:16;17.90;99.90
15072;DHT22;7635;56.696;13.002;2023-07-20T11:39:43;18.00;99.90
15072;DHT22;7635;56.696;13.002;2023-07-20T11:42:11;18.10;99.90
15072;DHT22;7635;56.696;13.002;2023-07-20T11:44:38;18.20;99.90
15072;DHT22;7635;56.696;13.002;2023-07-20T11:47:06;18.30;99.90
15072;DHT22;7635;56.696;13.002;2023-07-20T11:49:37;18.40;99.90
15072;DHT22;7635;56.696;13.002;2023-07-20T11:52:06;18.40;99.90
15072;DHT22;7635;56.696;13.002;2023-07-20T11:54:34;18.40;99.90
15072;DHT22;7635;56.696;13.002;2023-07-20T11:57:01;18.40;99.90
15072;DHT22;7635;56.696;13.002;2023-07-20T11:59:28;18.50;99.90
15072;DHT22;7635;56.696;13.002;2023-07-20T12:01:54;18.60;99.90
15072;DHT22;7635;56.696;13.002;2023-07-20T12:04:23;18.70;99.90
15072;DHT22;7635;56.696;13.002;2023-07-20T12:06:49;18.80;99.90
15072;DHT22;7635;56.696;13.002;2023-07-20T12:09:17;18.80;99.90
15072;DHT22;7635;56.696;13.002;2023-07-20T12:11:45;18.90;99.90
15072;DHT22;7635;56.696;13.002;2023-07-20T12:14:15;18.80;99.90
15072;DHT22;7635;56.696;13.002;2023-07-20T12:16:42;18.50;99.90
15072;DHT22;7635;56.696;13.002;2023-07-20T12:19:10;18.30;99.90
15072;DHT22;7635;56.696;13.002;2023-07-20T12:21:38;17.90;99.90
15072;DHT22;7635;56.696;13.002;2023-07-20T12:24:07;17.90;99.90
15072;DHT22;7635;56.696;13.002;2023-07-20T12:26:36;17.90;99.90
15072;DHT22;7635;56.696;13.002;2023-07-20T12:29:02;18.10;99.90
15072;DHT22;7635;56.696;13.002;2023-07-20T12:31:30;18.40;99.90
15072;DHT22;7635;56.696;13.002;2023-07-20T12:33:58;18.70;99.90
15072;DHT22;7635;56.696;13.002;2023-07-20T12:36:25;19.00;99.90
15072;DHT22;7635;56.696;13.002;2023-07-20T12:38:51;19.20;99.90
15072;DHT22;7635;56.696;13.002;2023-07-20T12:41:18;19.10;99.90
15072;DHT22;7635;56.696;13.002;2023-07-20T12:43:47;19.00;99.90
15072;DHT22;7635;56.696;13.002;2023-07-20T12:46:13;18.90;99.90
15072;DHT22;7635;56.696;13.002;2023-07-20T12:48:41;18.80;99.90
15072;DHT22;7635;56.696;13.002;2023-07-20T12:51:08;18.70;99.90
15072;DHT22;7635;56.696;13.002;2023-07-20T12:53:36;18.80;99.90
15072;DHT22;7635;56.696;13.002;2023-07-20T12:56:02;18.70;99.90
15072;DHT22;7635;56.696;13.002;2023-07-20T12:58:29;18.70;99.90
15072;DHT22;7635;56.696;13.002;2023-07-20T13:00:57;18.60;99.90
15072;DHT22;7635;56.696;13.002;2023-07-20T13:03:24;18.50;99.90
15072;DHT22;7635;56.696;13.002;2023-07-20T13:05:51;18.60;99.90
15072;DHT22;7635;56.696;13.002;2023-07-20T13:08:17;18.60;99.90
15072;DHT22;7635;56.696;13.002;2023-07-20T13:10:45;18.60;99.90
15072;DHT22;7635;56.696;13.002;2023-07-20T13:13:11;18.70;99.90
15072;DHT22;7635;56.696;13.002;2023-07-20T13:15:42;19.00;99.90
15072;DHT22;7635;56.696;13.002;2023-07-20T13:18:11;19.20;99.90
15072;DHT22;7635;56.696;13.002;2023-07-20T13:20:37;19.20;99.90
15072;DHT22;7635;56.696;13.002;2023-07-20T13:23:04;19.20;99.90
15072;DHT22;7635;56.696;13.002;2023-07-20T13:25:31;19.20;99.90
15072;DHT22;7635;56.696;13.002;2023-07-20T13:27:58;19.20;99.90
15072;DHT22;7635;56.696;13.002;2023-07-20T13:30:24;19.20;99.90
15072;DHT22;7635;56.696;13.002;2023-07-20T13:32:52;19.20;99.90
15072;DHT22;7635;56.696;13.002;2023-07-20T13:35:20;19.20;99.90
15072;DHT22;7635;56.696;13.002;2023-07-20T13:37:47;19.20;99.90
15072;DHT22;7635;56.696;13.002;2023-07-20T13:40:15;19.20;99.90
15072;DHT22;7635;56.696;13.002;2023-07-20T13:42:44;19.10;99.90
15072;DHT22;7635;56.696;13.002;2023-07-20T13:45:10;19.00;99.90
15072;DHT22;7635;56.696;13.002;2023-07-20T13:47:37;18.90;99.90
15072;DHT22;7635;56.696;13.002;2023-07-20T13:50:04;18.80;99.90
15072;DHT22;7635;56.696;13.002;2023-07-20T13:52:33;18.70;99.90
15072;DHT22;7635;56.696;13.002;2023-07-20T13:54:59;18.80;99.90
15072;DHT22;7635;56.696;13.002;2023-07-20T13:57:26;18.80;99.90
15072;DHT22;7635;56.696;13.002;2023-07-20T13:59:53;18.80;99.90
15072;DHT22;7635;56.696;13.002;2023-07-20T14:02:19;18.80;99.90
15072;DHT22;7635;56.696;13.002;2023-07-20T14:04:46;18.80;99.90
15072;DHT22;7635;56.696;13.002;2023-07-20T14:07:13;18.90;99.90
15072;DHT22;7635;56.696;13.002;2023-07-20T14:09:41;19.10;99.90
15072;DHT22;7635;56.696;13.002;2023-07-20T14:12:09;19.30;99.90
15072;DHT22;7635;56.696;13.002;2023-07-20T14:14:37;19.40;99.90
15072;DHT22;7635;56.696;13.002;2023-07-20T14:17:04;19.40;99.90
15072;DHT22;7635;56.696;13.002;2023-07-20T14:19:31;19.40;99.90
15072;DHT22;7635;56.696;13.002;2023-07-20T14:21:58;19.30;99.90
15072;DHT22;7635;56.696;13.002;2023-07-20T14:24:25;19.30;99.90
15072;DHT22;7635;56.696;13.002;2023-07-20T14:26:53;19.30;99.90
15072;DHT22;7635;56.696;13.002;2023-07-20T14:29:20;19.30;99.90
15072;DHT22;7635;56.696;13.002;2023-07-20T14:31:46;19.20;99.90
15072;DHT22;7635;56.696;13.002;2023-07-20T14:34:16;19.10;99.90
15072;DHT22;7635;56.696;13.002;2023-07-20T14:36:44;19.00;99.90
15072;DHT22;7635;56.696;13.002;2023-07-20T14:39:11;19.00;99.90
15072;DHT22;7635;56.696;13.002;2023-07-20T14:41:38;18.90;99.90
15072;DHT22;7635;56.696;13.002;2023-07-20T14:44:06;18.80;99.90
15072;DHT22;7635;56.696;13.002;2023-07-20T14:46:32;18.90;99.90
15072;DHT22;7635;56.696;13.002;2023-07-20T14:48:59;18.80;99.90
15072;DHT22;7635;56.696;13.002;2023-07-20T14:51:26;18.80;99.90
15072;DHT22;7635;56.696;13.002;2023-07-20T14:53:57;18.90;99.90
15072;DHT22;7635;56.696;13.002;2023-07-20T14:56:23;18.90;99.90
15072;DHT22;7635;56.696;13.002;2023-07-20T14:58:50;18.80;99.90
15072;DHT22;7635;56.696;13.002;2023-07-20T15:01:18;18.80;99.90
15072;DHT22;7635;56.696;13.002;2023-07-20T15:03:45;19.00;99.90
15072;DHT22;7635;56.696;13.002;2023-07-20T15:06:11;19.00;99.90
15072;DHT22;7635;56.696;13.002;2023-07-20T15:08:38;19.20;99.90
15072;DHT22;7635;56.696;13.002;2023-07-20T15:11:05;19.40;99.90
15072;DHT22;7635;56.696;13.002;2023-07-20T15:13:32;19.50;99.90
15072;DHT22;7635;56.696;13.002;2023-07-20T15:15:58;19.50;99.90
15072;DHT22;7635;56.696;13.002;2023-07-20T15:18:27;19.30;99.90
15072;DHT22;7635;56.696;13.002;2023-07-20T15:20:53;19.20;99.90
15072;DHT22;7635;56.696;13.002;2023-07-20T15:23:20;19.10;99.90
15072;DHT22;7635;56.696;13.002;2023-07-20T15:25:47;19.10;99.90
15072;DHT22;7635;56.696;13.002;2023-07-20T15:28:13;19.10;99.90
15072;DHT22;7635;56.696;13.002;2023-07-20T15:30:40;19.00;99.90
15072;DHT22;7635;56.696;13.002;2023-07-20T15:33:07;19.00;99.90
15072;DHT22;7635;56.696;13.002;2023-07-20T15:35:35;19.00;99.90
15072;DHT22;7635;56.696;13.002;2023-07-20T15:38:02;19.10;99.90
15072;DHT22;7635;56.696;13.002;2023-07-20T15:40:29;19.20;99.90
15072;DHT22;7635;56.696;13.002;2023-07-20T15:42:55;19.30;99.90
15072;DHT22;7635;56.696;13.002;2023-07-20T15:45:22;19.30;99.90
15072;DHT22;7635;56.696;13.002;2023-07-20T15:47:49;19.30;99.90
15072;DHT22;7635;56.696;13.002;2023-07-20T15:50:16;19.20;99.90
15072;DHT22;7635;56.696;13.002;2023-07-20T15:52:44;19.10;99.90
15072;DHT22;7635;56.696;13.002;2023-07-20T15:55:10;19.00;99.90
15072;DHT22;7635;56.696;13.002;2023-07-20T15:57:37;18.80;99.90
15072;DHT22;7635;56.696;13.002;2023-07-20T16:00:05;18.60;99.90
15072;DHT22;7635;56.696;13.002;2023-07-20T16:02:35;18.20;99.90
15072;DHT22;7635;56.696;13.002;2023-07-20T16:05:02;17.90;99.90
15072;DHT22;7635;56.696;13.002;2023-07-20T16:07:29;17.80;99.90
15072;DHT22;7635;56.696;13.002;2023-07-20T16:09:58;17.80;99.90
15072;DHT22;7635;56.696;13.002;2023-07-20T16:12:26;17.70;99.90
15072;DHT22;7635;56.696;13.002;2023-07-20T16:14:54;17.70;99.90
15072;DHT22;7635;56.696;13.002;2023-07-20T16:17:20;17.60;99.90
15072;DHT22;7635;56.696;13.002;2023-07-20T16:19:47;17.50;99.90
15072;DHT22;7635;56.696;13.002;2023-07-20T16:22:14;17.50;99.90
15072;DHT22;7635;56.696;13.002;2023-07-20T16:24:40;17.50;99.90
15072;DHT22;7635;56.696;13.002;2023-07-20T16:27:09;17.50;99.90
15072;DHT22;7635;56.696;13.002;2023-07-20T16:29:35;17.50;99.90
15072;DHT22;7635;56.696;13.002;2023-07-20T16:32:02;17.60;99.90
15072;DHT22;7635;56.696;13.002;2023-07-20T16:34:29;17.60;99.90
15072;DHT22;7635;56.696;13.002;2023-07-20T16:36:56;17.60;99.90
15072;DHT22;7635;56.696;13.002;2023-07-20T16:39:22;17.60;99.90
15072;DHT22;7635;56.696;13.002;2023-07-20T16:41:49;17.50;99.90
15072;DHT22;7635;56.696;13.002;2023-07-20T16:44:17;17.50;99.90
15072;DHT22;7635;56.696;13.002;2023-07-20T16:46:45;17.50;99.90
15072;DHT22;7635;56.696;13.002;2023-07-20T16:49:12;17.40;99.90
15072;DHT22;7635;56.696;13.002;2023-07-20T16:51:38;17.40;99.90
15072;DHT22;7635;56.696;13.002;2023-07-20T16:54:05;17.30;99.90
15072;DHT22;7635;56.696;13.002;2023-07-20T16:56:33;17.20;99.90
15072;DHT22;7635;56.696;13.002;2023-07-20T16:59:00;17.20;99.90
15072;DHT22;7635;56.696;13.002;2023-07-20T17:01:28;17.20;99.90
15072;DHT22;7635;56.696;13.002;2023-07-20T17:03:54;17.20;99.90
15072;DHT22;7635;56.696;13.002;2023-07-20T17:06:21;17.30;99.90
15072;DHT22;7635;56.696;13.002;2023-07-20T17:08:47;17.30;99.90
15072;DHT22;7635;56.696;13.002;2023-07-20T17:11:14;17.30;99.90
15072;DHT22;7635;56.696;13.002;2023-07-20T17:13:41;17.30;99.90
15072;DHT22;7635;56.696;13.002;2023-07-20T17:16:07;17.20;99.90
15072;DHT22;7635;56.696;13.002;2023-07-20T17:18:36;17.20;99.90
15072;DHT22;7635;56.696;13.002;2023-07-20T17:21:02;17.20;99.90
15072;DHT22;7635;56.696;13.002;2023-07-20T17:23:29;17.20;99.90
15072;DHT22;7635;56.696;13.002;2023-07-20T17:25:57;17.20;99.90
15072;DHT22;7635;56.696;13.002;2023-07-20T17:28:23;17.20;99.90
15072;DHT22;7635;56.696;13.002;2023-07-20T17:30:59;17.20;99.90
15072;DHT22;7635;56.696;13.002;2023-07-20T17:33:26;17.10;99.90
15072;DHT22;7635;56.696;13.002;2023-07-20T17:35:54;17.00;99.90
15072;DHT22;7635;56.696;13.002;2023-07-20T17:38:21;17.00;99.90
15072;DHT22;7635;56.696;13.002;2023-07-20T17:40:48;17.00;99.90
15072;DHT22;7635;56.696;13.002;2023-07-20T17:43:15;17.00;99.90
15072;DHT22;7635;56.696;13.002;2023-07-20T17:45:42;17.00;99.90
15072;DHT22;7635;56.696;13.002;2023-07-20T17:48:08;16.90;99.90
15072;DHT22;7635;56.696;13.002;2023-07-20T17:50:35;16.90;99.90
15072;DHT22;7635;56.696;13.002;2023-07-20T17:53:03;16.90;99.90
15072;DHT22;7635;56.696;13.002;2023-07-20T17:55:30;16.80;99.90
15072;DHT22;7635;56.696;13.002;2023-07-20T17:57:57;16.80;99.90
15072;DHT22;7635;56.696;13.002;2023-07-20T18:00:24;16.70;99.90
15072;DHT22;7635;56.696;13.002;2023-07-20T18:02:51;16.60;99.90
15072;DHT22;7635;56.696;13.002;2023-07-20T18:05:17;16.50;99.90
15072;DHT22;7635;56.696;13.002;2023-07-20T18:07:44;16.50;99.90
15072;DHT22;7635;56.696;13.002;2023-07-20T18:10:12;16.50;99.90
15072;DHT22;7635;56.696;13.002;2023-07-20T18:12:39;16.50;99.90
15072;DHT22;7635;56.696;13.002;2023-07-20T18:15:07;16.50;99.90
15072;DHT22;7635;56.696;13.002;2023-07-20T18:17:35;16.40;99.90
15072;DHT22;7635;56.696;13.002;2023-07-20T18:20:02;16.40;99.90
15072;DHT22;7635;56.696;13.002;2023-07-20T18:22:29;16.40;99.90
15072;DHT22;7635;56.696;13.002;2023-07-20T18:24:56;16.40;99.90
15072;DHT22;7635;56.696;13.002;2023-07-20T18:27:25;16.40;99.90
15072;DHT22;7635;56.696;13.002;2023-07-20T18:29:52;16.40;99.90
15072;DHT22;7635;56.696;13.002;2023-07-20T18:32:19;16.40;99.90
15072;DHT22;7635;56.696;13.002;2023-07-20T18:34:46;16.40;99.90
15072;DHT22;7635;56.696;13.002;2023-07-20T18:37:12;16.30;99.90
15072;DHT22;7635;56.696;13.002;2023-07-20T18:39:44;16.30;99.90
15072;DHT22;7635;56.696;13.002;2023-07-20T18:42:11;16.30;99.90
15072;DHT22;7635;56.696;13.002;2023-07-20T18:44:39;16.30;99.90
15072;DHT22;7635;56.696;13.002;2023-07-20T18:47:06;16.20;99.90
15072;DHT22;7635;56.696;13.002;2023-07-20T18:49:33;16.20;99.90
15072;DHT22;7635;56.696;13.002;2023-07-20T18:52:00;16.20;99.90
15072;DHT22;7635;56.696;13.002;2023-07-20T18:54:27;16.10;99.90
15072;DHT22;7635;56.696;13.002;2023-07-20T18:56:53;16.10;99.90
15072;DHT22;7635;56.696;13.002;2023-07-20T18:59:20;16.10;99.90
15072;DHT22;7635;56.696;13.002;2023-07-20T19:01:48;16.10;99.90
15072;DHT22;7635;56.696;13.002;2023-07-20T19:04:16;16.10;99.90
15072;DHT22;7635;56.696;13.002;2023-07-20T19:06:43;16.00;99.90
15072;DHT22;7635;56.696;13.002;2023-07-20T19:09:09;16.00;99.90
15072;DHT22;7635;56.696;13.002;2023-07-20T19:11:36;16.00;99.90
15072;DHT22;7635;56.696;13.002;2023-07-20T19:14:03;16.00;99.90
15072;DHT22;7635;56.696;13.002;2023-07-20T19:16:30;15.90;99.90
15072;DHT22;7635;56.696;13.002;2023-07-20T19:18:58;15.90;99.90
15072;DHT22;7635;56.696;13.002;2023-07-20T19:21:25;15.90;99.90
15072;DHT22;7635;56.696;13.002;2023-07-20T19:23:52;15.90;99.90
15072;DHT22;7635;56.696;13.002;2023-07-20T19:26:19;15.80;99.90
15072;DHT22;7635;56.696;13.002;2023-07-20T19:28:46;15.80;99.90
15072;DHT22;7635;56.696;13.002;2023-07-20T19:31:12;15.80;99.90
15072;DHT22;7635;56.696;13.002;2023-07-20T19:33:39;15.80;99.90
15072;DHT22;7635;56.696;13.002;2023-07-20T19:36:07;15.70;99.90
15072;DHT22;7635;56.696;13.002;2023-07-20T19:38:34;15.70;99.90
15072;DHT22;7635;56.696;13.002;2023-07-20T19:41:01;15.70;99.90
15072;DHT22;7635;56.696;13.002;2023-07-20T19:43:30;15.70;99.90
15072;DHT22;7635;56.696;13.002;2023-07-20T19:45:57;15.60;99.90
15072;DHT22;7635;56.696;13.002;2023-07-20T19:48:24;15.60;99.90
15072;DHT22;7635;56.696;13.002;2023-07-20T19:50:50;15.50;99.90
15072;DHT22;7635;56.696;13.002;2023-07-20T19:53:19;15.50;99.90
15072;DHT22;7635;56.696;13.002;2023-07-20T19:55:45;15.40;99.90
15072;DHT22;7635;56.696;13.002;2023-07-20T19:58:12;15.40;99.90
15072;DHT22;7635;56.696;13.002;2023-07-20T20:00:39;15.40;99.90
15072;DHT22;7635;56.696;13.002;2023-07-20T20:03:06;15.30;99.90
15072;DHT22;7635;56.696;13.002;2023-07-20T20:05:34;15.30;99.90
15072;DHT22;7635;56.696;13.002;2023-07-20T20:08:03;15.30;99.90
15072;DHT22;7635;56.696;13.002;2023-07-20T20:10:32;15.30;99.90
15072;DHT22;7635;56.696;13.002;2023-07-20T20:12:59;15.30;99.90
15072;DHT22;7635;56.696;13.002;2023-07-20T20:15:27;15.30;99.90
15072;DHT22;7635;56.696;13.002;2023-07-20T20:17:53;15.30;99.90
15072;DHT22;7635;56.696;13.002;2023-07-20T20:20:21;15.30;99.90
15072;DHT22;7635;56.696;13.002;2023-07-20T20:22:47;15.20;99.90
15072;DHT22;7635;56.696;13.002;2023-07-20T20:25:14;15.20;99.90
15072;DHT22;7635;56.696;13.002;2023-07-20T20:27:42;15.20;99.90
15072;DHT22;7635;56.696;13.002;2023-07-20T20:30:10;15.20;99.90
15072;DHT22;7635;56.696;13.002;2023-07-20T20:32:37;15.20;99.90
15072;DHT22;7635;56.696;13.002;2023-07-20T20:35:08;15.20;99.90
15072;DHT22;7635;56.696;13.002;2023-07-20T20:37:35;15.20;99.90
15072;DHT22;7635;56.696;13.002;2023-07-20T20:40:02;15.20;99.90
15072;DHT22;7635;56.696;13.002;2023-07-20T20:42:29;15.20;99.90
15072;DHT22;7635;56.696;13.002;2023-07-20T20:44:57;15.20;99.90
15072;DHT22;7635;56.696;13.002;2023-07-20T20:47:24;15.20;99.90
15072;DHT22;7635;56.696;13.002;2023-07-20T20:49:51;15.20;99.90
15072;DHT22;7635;56.696;13.002;2023-07-20T20:52:19;15.20;99.90
15072;DHT22;7635;56.696;13.002;2023-07-20T20:54:46;15.10;99.90
15072;DHT22;7635;56.696;13.002;2023-07-20T20:57:12;15.10;99.90
15072;DHT22;7635;56.696;13.002;2023-07-20T20:59:39;15.10;99.90
15072;DHT22;7635;56.696;13.002;2023-07-20T21:02:09;15.10;99.90
15072;DHT22;7635;56.696;13.002;2023-07-20T21:04:39;15.10;99.90
15072;DHT22;7635;56.696;13.002;2023-07-20T21:07:06;15.10;99.90
15072;DHT22;7635;56.696;13.002;2023-07-20T21:09:33;15.10;99.90
15072;DHT22;7635;56.696;13.002;2023-07-20T21:12:00;15.10;99.90
15072;DHT22;7635;56.696;13.002;2023-07-20T21:14:26;15.00;99.90
15072;DHT22;7635;56.696;13.002;2023-07-20T21:16:53;15.00;99.90
15072;DHT22;7635;56.696;13.002;2023-07-20T21:19:21;15.00;99.90
15072;DHT22;7635;56.696;13.002;2023-07-20T21:21:47;15.00;99.90
15072;DHT22;7635;56.696;13.002;2023-07-20T21:24:14;14.90;99.90
15072;DHT22;7635;56.696;13.002;2023-07-20T21:26:41;14.90;99.90
15072;DHT22;7635;56.696;13.002;2023-07-20T21:29:07;15.00;99.90
15072;DHT22;7635;56.696;13.002;2023-07-20T21:31:34;14.90;99.90
15072;DHT22;7635;56.696;13.002;2023-07-20T21:34:01;14.90;99.90
15072;DHT22;7635;56.696;13.002;2023-07-20T21:36:29;14.90;99.90
15072;DHT22;7635;56.696;13.002;2023-07-20T21:38:55;14.90;99.90
15072;DHT22;7635;56.696;13.002;2023-07-20T21:41:23;14.90;99.90
15072;DHT22;7635;56.696;13.002;2023-07-20T21:43:49;14.90;99.90
15072;DHT22;7635;56.696;13.002;2023-07-20T21:46:16;14.90;99.90
15072;DHT22;7635;56.696;13.002;2023-07-20T21:48:43;14.90;99.90
15072;DHT22;7635;56.696;13.002;2023-07-20T21:51:09;14.90;99.90
15072;DHT22;7635;56.696;13.002;2023-07-20T21:53:38;14.90;99.90
15072;DHT22;7635;56.696;13.002;2023-07-20T21:56:04;14.90;99.90
15072;DHT22;7635;56.696;13.002;2023-07-20T21:58:31;14.90;99.90
15072;DHT22;7635;56.696;13.002;2023-07-20T22:00:58;14.90;99.90
15072;DHT22;7635;56.696;13.002;2023-07-20T22:03:28;14.90;99.90
15072;DHT22;7635;56.696;13.002;2023-07-20T22:05:55;14.90;99.90
15072;DHT22;7635;56.696;13.002;2023-07-20T22:08:22;14.90;99.90
15072;DHT22;7635;56.696;13.002;2023-07-20T22:10:50;14.80;99.90
15072;DHT22;7635;56.696;13.002;2023-07-20T22:13:17;14.90;99.90
15072;DHT22;7635;56.696;13.002;2023-07-20T22:15:45;14.80;99.90
15072;DHT22;7635;56.696;13.002;2023-07-20T22:18:12;14.80;99.90
15072;DHT22;7635;56.696;13.002;2023-07-20T22:20:39;14.80;99.90
15072;DHT22;7635;56.696;13.002;2023-07-20T22:23:05;14.80;99.90
15072;DHT22;7635;56.696;13.002;2023-07-20T22:25:32;14.80;99.90
15072;DHT22;7635;56.696;13.002;2023-07-20T22:28:00;14.70;99.90
15072;DHT22;7635;56.696;13.002;2023-07-20T22:30:27;14.70;99.90
15072;DHT22;7635;56.696;13.002;2023-07-20T22:32:54;14.70;99.90
15072;DHT22;7635;56.696;13.002;2023-07-20T22:35:21;14.70;99.90
15072;DHT22;7635;56.696;13.002;2023-07-20T22:37:48;14.70;99.90
15072;DHT22;7635;56.696;13.002;2023-07-20T22:40:16;14.70;99.90
15072;DHT22;7635;56.696;13.002;2023-07-20T22:42:42;14.70;99.90
15072;DHT22;7635;56.696;13.002;2023-07-20T22:45:12;14.70;99.90
15072;DHT22;7635;56.696;13.002;2023-07-20T22:47:39;14.60;99.90
15072;DHT22;7635;56.696;13.002;2023-07-20T22:50:07;14.60;99.90
15072;DHT22;7635;56.696;13.002;2023-07-20T22:52:34;14.60;99.90
15072;DHT22;7635;56.696;13.002;2023-07-20T22:55:01;14.60;99.90
15072;DHT22;7635;56.696;13.002;2023-07-20T22:57:28;14.60;99.90
15072;DHT22;7635;56.696;13.002;2023-07-20T22:59:55;14.50;99.90
15072;DHT22;7635;56.696;13.002;2023-07-20T23:02:22;14.60;99.90